Time;durP1;ratioP1;P1;durP2;ratioP2;P2;SDS_P1;SDS_P2;PMS_P1;PMS_P2;Temp;Humidity;BMP_temperature;BMP_pressure;BME280_temperature;BME280_humidity;BME280_pressure;Samples;Min_cycle;Max_cycle;Signal;HPM_P1;HPM_P2
2021/03/25 00:04:30;;;;;;;19.13;15.23;;;;;;;19.51;36.09;101364.44;31357536;28;20053;-64
2021/03/25 00:19:31;;;;;;;18.10;14.32;;;;;;;19.40;36.32;101338.94;31374218;28;20379;-64
2021/03/25 00:34:32;;;;;;;19.90;15.03;;;;;;;19.31;36.44;101328.22;31371550;28;20029;-64
2021/03/25 00:49:34;;;;;;;16.10;13.70;;;;;;;19.21;36.51;101334.22;31432999;28;20295;-64
2021/03/25 01:04:35;;;;;;;18.08;14.32;;;;;;;19.12;36.57;101331.47;31493400;28;20299;-64
2021/03/25 01:19:36;;;;;;;16.50;14.03;;;;;;;19.01;36.67;101325.22;31491092;28;20035;-64
2021/03/25 01:34:37;;;;;;;16.93;14.27;;;;;;;18.97;36.76;101334.31;31426956;28;20660;-64
2021/03/25 01:49:38;;;;;;;16.73;13.87;;;;;;;18.93;36.96;101326.75;31429215;28;20301;-63
2021/03/25 02:05:02;;;;;;;18.77;14.47;;;;;;;18.93;36.88;101319.69;31484672;28;20317;-62
2021/03/25 02:20:22;;;;;;;14.90;12.63;;;;;;;18.92;36.65;101309.25;31468915;28;20341;-63
2021/03/25 02:35:35;;;;;;;17.30;13.63;;;;;;;18.84;36.82;101308.03;31482916;28;20020;-63
2021/03/25 02:50:50;;;;;;;16.73;12.82;;;;;;;18.78;36.88;101297.13;31392541;28;20045;-63
2021/03/25 03:05:51;;;;;;;15.30;12.45;;;;;;;18.72;37.18;101306.31;31341554;28;20029;-63
2021/03/25 03:20:54;;;;;;;14.98;12.25;;;;;;;18.69;37.11;101300.44;31339681;28;20079;-63
2021/03/25 03:36:16;;;;;;;16.27;13.38;;;;;;;18.63;37.17;101304.38;31412125;28;20098;-62
2021/03/25 03:51:28;;;;;;;15.50;12.55;;;;;;;18.54;37.02;101308.53;31421242;28;20029;-63
2021/03/25 04:06:33;;;;;;;14.02;11.93;;;;;;;18.51;37.57;101310.53;31360301;28;20106;-62
2021/03/25 04:21:41;;;;;;;14.52;11.98;;;;;;;18.45;37.37;101308.38;31359919;28;20037;-64
2021/03/25 04:36:42;;;;;;;15.55;11.93;;;;;;;18.40;37.40;101311.34;31354918;28;20106;-63
2021/03/25 04:51:43;;;;;;;15.25;11.80;;;;;;;18.37;37.37;101315.06;31451263;28;20120;-64
2021/03/25 05:07:04;;;;;;;15.77;12.82;;;;;;;18.37;37.61;101329.97;31491044;28;20398;-63
2021/03/25 05:22:28;;;;;;;13.75;11.77;;;;;;;18.34;37.41;101315.25;31474995;28;20543;-64
2021/03/25 05:37:29;;;;;;;13.57;11.40;;;;;;;18.38;37.18;101335.13;31487124;28;20090;-62
2021/03/25 05:52:48;;;;;;;14.85;12.57;;;;;;;18.40;37.21;101335.03;31396713;28;20033;-64
2021/03/25 06:08:26;;;;;;;13.57;10.48;;;;;;;18.47;37.00;101340.69;31362067;28;20029;-64
2021/03/25 06:23:38;;;;;;;14.57;11.27;;;;;;;18.58;36.46;101354.75;31360799;28;20029;-65
2021/03/25 06:38:44;;;;;;;12.50;9.80;;;;;;;18.72;36.40;101363.41;31445029;28;20103;-63
2021/03/25 06:53:45;;;;;;;14.13;10.73;;;;;;;18.81;36.23;101373.31;31499980;28;20040;-62
2021/03/25 07:08:46;;;;;;;14.23;10.25;;;;;;;19.02;36.52;101386.66;31495847;28;20432;-63
2021/03/25 07:23:47;;;;;;;47.30;32.95;;;;;;;17.37;34.00;101402.75;31537680;28;20028;-62
2021/03/25 07:38:48;;;;;;;50.88;33.08;;;;;;;16.81;34.87;101420.47;31489107;28;20044;-62
2021/03/25 07:53:50;;;;;;;44.25;30.45;;;;;;;17.41;36.74;101416.50;31447374;28;20055;-62
2021/03/25 08:09:05;;;;;;;35.53;22.95;;;;;;;19.41;35.02;101416.22;31498760;28;20044;-65
2021/03/25 08:24:29;;;;;;;45.35;28.73;;;;;;;24.32;26.07;101417.03;31444160;28;20490;-64
2021/03/25 08:39:51;;;;;;;35.63;24.75;;;;;;;27.57;20.86;101409.75;31423933;28;20032;-64
2021/03/25 08:54:59;;;;;;;31.00;21.67;;;;;;;25.66;23.89;101402.69;31440121;28;20041;-63
2021/03/25 09:10:01;;;;;;;22.83;16.45;;;;;;;24.72;26.42;101413.16;31429138;28;20043;-62
2021/03/25 09:25:25;;;;;;;19.70;14.63;;;;;;;25.52;25.94;101405.94;31434813;28;20033;-62
2021/03/25 09:40:47;;;;;;;17.57;12.03;;;;;;;31.09;18.68;101383.06;31419705;28;20028;-61
2021/03/25 09:56:19;;;;;;;16.83;11.80;;;;;;;34.19;15.30;101378.28;31425287;28;20045;-63
2021/03/25 10:11:46;;;;;;;13.47;10.37;;;;;;;34.56;15.22;101381.13;31418074;28;20086;-61
2021/03/25 10:26:47;;;;;;;13.17;10.27;;;;;;;33.40;16.36;101372.19;31439556;28;20291;-60
2021/03/25 10:41:48;;;;;;;14.47;9.97;;;;;;;31.22;18.91;101369.72;31420385;28;20291;-61
2021/03/25 10:57:12;;;;;;;13.60;9.77;;;;;;;27.72;23.47;101366.31;31436068;28;20040;-62
2021/03/25 11:12:19;;;;;;;12.10;9.10;;;;;;;26.45;25.64;101368.63;31449572;28;20279;-62
2021/03/25 11:27:21;;;;;;;12.25;9.13;;;;;;;25.77;27.00;101360.78;31436709;28;20409;-58
2021/03/25 11:42:22;;;;;;;13.45;9.63;;;;;;;24.91;26.84;101351.00;31406244;28;20032;-62
2021/03/25 11:57:28;;;;;;;13.37;8.90;;;;;;;24.26;28.18;101352.06;31398294;28;20049;-62
2021/03/25 12:12:29;;;;;;;9.93;7.53;;;;;;;23.94;28.89;101334.81;31446828;28;20352;-62
2021/03/25 12:27:30;;;;;;;65.18;50.90;;;;;;;23.46;27.51;101319.94;31417489;28;20124;-61
2021/03/25 12:42:31;;;;;;;20.13;14.23;;;;;;;23.61;28.55;101325.59;31440503;28;20421;-60
2021/03/25 12:57:32;;;;;;;18.33;12.77;;;;;;;23.23;30.04;101314.19;31431937;28;20303;-61
2021/03/25 13:12:33;;;;;;;13.27;10.68;;;;;;;23.32;30.43;101294.75;31417374;28;20020;-61
2021/03/25 13:27:34;;;;;;;11.68;9.27;;;;;;;23.01;31.08;101283.53;31401784;28;20045;-62
2021/03/25 13:42:35;;;;;;;11.65;8.60;;;;;;;22.72;32.07;101286.22;31413828;28;20024;-60
2021/03/25 13:57:36;;;;;;;10.80;8.30;;;;;;;22.69;32.13;101282.03;31430153;28;20338;-63
2021/03/25 14:12:37;;;;;;;11.10;7.97;;;;;;;22.53;32.52;101269.38;31397078;28;20289;-60
2021/03/25 14:27:39;;;;;;;11.37;7.87;;;;;;;22.40;32.66;101271.47;31421952;28;20300;-59
2021/03/25 14:42:40;;;;;;;22.90;14.82;;;;;;;21.88;30.87;101257.66;31399916;28;20360;-59
2021/03/25 14:57:41;;;;;;;13.98;10.23;;;;;;;21.69;32.59;101266.38;31369597;28;20052;-61
2021/03/25 15:12:43;;;;;;;11.33;8.67;;;;;;;21.68;32.43;101264.72;31409434;28;20032;-59
2021/03/25 15:27:43;;;;;;;12.43;7.78;;;;;;;21.50;33.08;101268.00;31405027;28;20344;-58
2021/03/25 15:42:45;;;;;;;11.67;7.77;;;;;;;21.34;33.28;101267.63;31426250;28;20024;-59
2021/03/25 15:57:46;;;;;;;10.15;7.57;;;;;;;21.13;33.90;101265.06;31413221;28;20317;-60
2021/03/25 16:12:47;;;;;;;10.05;7.93;;;;;;;20.96;34.06;101274.44;31383519;28;20033;-58
2021/03/25 16:27:48;;;;;;;10.10;7.57;;;;;;;20.77;35.27;101274.31;31411730;28;20035;-57
2021/03/25 16:42:50;;;;;;;11.85;7.47;;;;;;;20.57;35.34;101283.91;31433866;28;20291;-58
2021/03/25 16:57:51;;;;;;;8.98;7.30;;;;;;;20.49;35.28;101284.50;31427386;28;20486;-61
2021/03/25 17:12:52;;;;;;;9.45;6.97;;;;;;;20.47;35.35;101299.66;31433077;28;20150;-61
2021/03/25 17:27:53;;;;;;;11.43;8.60;;;;;;;20.50;35.32;101302.88;31427940;28;20122;-68
2021/03/25 17:42:54;;;;;;;10.53;8.80;;;;;;;20.47;35.05;101308.41;31404927;28;20040;-68
2021/03/25 17:57:55;;;;;;;12.85;8.40;;;;;;;20.42;35.24;101313.22;31388556;28;20804;-68
2021/03/25 18:12:56;;;;;;;11.07;8.40;;;;;;;20.35;35.69;101327.91;31407011;28;20025;-64
2021/03/25 18:28:00;;;;;;;15.10;10.60;;;;;;;20.26;35.30;101334.75;31395854;28;20291;-63
2021/03/25 18:43:02;;;;;;;12.82;10.02;;;;;;;20.18;35.63;101346.91;31367401;28;20341;-64
2021/03/25 18:58:03;;;;;;;14.38;10.50;;;;;;;20.11;35.46;101346.53;31462898;28;20040;-63
2021/03/25 19:13:04;;;;;;;12.50;11.20;;;;;;;20.10;34.95;101350.16;31507851;28;20020;-64
2021/03/25 19:28:05;;;;;;;17.50;10.93;;;;;;;20.13;35.49;101355.19;31485565;28;20033;-64
2021/03/25 19:43:08;;;;;;;54.38;34.80;;;;;;;18.62;33.34;101365.88;31424075;28;20035;-60
2021/03/25 19:58:09;;;;;;;55.70;33.33;;;;;;;17.91;34.86;101368.38;31432611;28;20041;-64
2021/03/25 20:13:11;;;;;;;37.67;23.20;;;;;;;18.98;34.06;101370.22;31428393;28;20028;-63
2021/03/25 20:28:12;;;;;;;58.03;26.67;;;;;;;19.70;33.72;101369.16;31525884;28;20059;-63
2021/03/25 20:43:13;;;;;;;41.30;19.77;;;;;;;20.14;33.73;101382.44;31478312;28;20024;-62
2021/03/25 20:58:16;;;;;;;32.97;18.67;;;;;;;20.33;33.86;101379.97;31461784;28;20052;-63
2021/03/25 21:13:18;;;;;;;32.47;17.48;;;;;;;20.48;33.55;101388.47;31472499;28;21562;-62
2021/03/25 21:28:20;;;;;;;31.27;16.85;;;;;;;20.63;33.77;101392.50;31521601;28;20044;-62
2021/03/25 21:43:22;;;;;;;28.17;16.23;;;;;;;20.69;33.63;101393.81;31449420;28;20047;-65
2021/03/25 21:58:23;;;;;;;26.40;15.77;;;;;;;20.61;34.14;101401.53;31396417;28;20086;-62
2021/03/25 22:13:29;;;;;;;23.00;15.40;;;;;;;20.48;34.48;101397.22;31409952;28;20031;-63
2021/03/25 22:28:31;;;;;;;27.63;16.75;;;;;;;20.37;34.57;101386.69;31473656;28;20102;-62
2021/03/25 22:43:34;;;;;;;44.65;30.08;;;;;;;19.80;34.01;101396.50;31427420;28;20360;-63
2021/03/25 22:58:35;;;;;;;43.40;29.27;;;;;;;19.76;33.89;101396.84;31496820;28;20037;-63
2021/03/25 23:13:36;;;;;;;33.67;22.75;;;;;;;19.81;34.47;101399.97;31409947;28;20444;-65
2021/03/25 23:28:42;;;;;;;32.67;22.15;;;;;;;19.76;34.87;101397.69;31412681;28;20090;-66
2021/03/25 23:43:43;;;;;;;30.63;21.02;;;;;;;19.69;35.11;101390.38;31447001;28;20502;-64
2021/03/25 23:58:44;;;;;;;26.75;19.10;;;;;;;19.67;35.34;101387.81;31464288;28;20041;-66
